Overview Statistics Trail Chart Weather Telemetry Raw packets
 

This is the latest recevied weather packets stored in our database for station/object IW1RID-3. If no packets are shown the sender has not sent any weather packets the latest 10 day(s).

<< 5 6 7 8 9 10 11 >>
Time Temp. Humidity Pressure Rain* Wind** Luminosity Snow
1788455708 27.78° C 74% 1076.1 hPa - - - -
1788454504 30° C 65% 1076.4 hPa - - - -
1788453299 28.89° C 68% 1076.5 hPa - - - -
1788452094 30° C 66% 1076.5 hPa - - - -
1788450890 30.56° C 63% 1076.6 hPa - - - -
1788449685 30° C 65% 1076.6 hPa - - - -
1788448481 30.56° C 63% 1076.7 hPa - - - -
1788447276 30° C 63% 1077 hPa - - - -
1788446072 30.56° C 60% 1077 hPa - - - -
1788444867 30° C 62% 1077.1 hPa - - - -
1788443662 30.56° C 60% 1077.1 hPa - - - -
1788442455 30.56° C 60% 1077.2 hPa - - - -
1788441250 30.56° C 58% 1077.1 hPa - - - -
1788440046 30.56° C 59% 1077 hPa - - - -
1788438841 31.11° C 61% 1077 hPa - - - -
1788437636 28.89° C 68% 1077 hPa - - - -
1788436432 28.89° C 70% 1077.1 hPa - - - -
1788435227 28.89° C 70% 1077 hPa - - - -
1788434022 28.89° C 71% 1077.2 hPa - - - -
1788432818 28.33° C 73% 1077.3 hPa - - - -
1788431612 28.89° C 68% 1077.5 hPa - - - -
1788430407 28.89° C 70% 1077.3 hPa - - - -
1788429203 27.78° C 71% 1077.6 hPa - - - -
1788427998 28.33° C 68% 1077.6 hPa - - - -
1788426793 27.78° C 70% 1077.5 hPa - - - -

* Rain since midnight (hover to see other rain measurements)
** Current wind speed in m/s (hover to see current wind gust speed)